Terminal Aerodrome Forecast
Issued by NWS Cleveland, OH

Home | Current Version | Previous Version | Graphics & Text | Print | Product List | Glossary On
Versions: 1 2 3 4 5 6 7 8 9 10 11 12 13 14 15 16 17 18 19 20 21 22 23 24 25 26
000
FTUS41 KCLE 241800 AAA
TAFCAK
TAF AMD
KCAK 241857Z 2419/2518 25010KT 4SM HZ OVC010
     FM250700 26006KT 4SM BR VCSH OVC008
     FM251400 05006KT 1 1/2SM -SN BR OVC005=

USA.gov is the U.S. government's official web portal to all federal, state and local government web resources and services.